createdAt,value
2017-05-02T00:00:24.898Z,19.42
2017-05-02T00:01:37.691Z,19.39
2017-05-02T00:02:50.485Z,19.42
2017-05-02T00:04:03.282Z,19.43
2017-05-02T00:05:16.082Z,19.43
2017-05-02T00:06:28.878Z,19.49
2017-05-02T00:07:41.196Z,19.42
2017-05-02T00:09:08.069Z,19.4
2017-05-02T00:10:20.876Z,19.34
2017-05-02T00:11:33.678Z,19.38
2017-05-02T00:12:46.472Z,19.25
2017-05-02T00:13:59.273Z,19.28
2017-05-02T00:15:12.077Z,19.25
2017-05-02T00:16:24.869Z,19.2
2017-05-02T00:17:37.180Z,19.2
2017-05-02T00:18:49.537Z,19.21
2017-05-02T00:20:02.336Z,19.09
2017-05-02T00:21:14.644Z,19.13
2017-05-02T00:22:27.438Z,19.1
2017-05-02T00:23:40.232Z,19.15
2017-05-02T00:24:52.795Z,19.12
2017-05-02T00:26:05.595Z,19.13
2017-05-02T00:27:18.386Z,19.07
2017-05-02T00:28:31.182Z,19.05
2017-05-02T00:29:43.979Z,19.13
2017-05-02T00:30:57.029Z,19.06
2017-05-02T00:32:09.821Z,19.12
2017-05-02T00:33:22.609Z,19.12
2017-05-02T00:34:35.442Z,19.07
2017-05-02T00:35:48.491Z,18.97
2017-05-02T00:37:01.286Z,19.09
2017-05-02T00:38:13.599Z,18.97
2017-05-02T00:39:26.404Z,18.99
2017-05-02T00:40:38.717Z,19.01
2017-05-02T00:41:51.766Z,19.07
2017-05-02T00:43:04.562Z,19.09
2017-05-02T00:44:16.873Z,18.96
2017-05-02T00:45:29.670Z,19.02
2017-05-02T00:46:42.464Z,19.1
2017-05-02T00:47:54.780Z,18.97
2017-05-02T00:49:07.572Z,18.97
2017-05-02T00:50:20.364Z,18.97
2017-05-02T00:51:33.159Z,18.94
2017-05-02T00:52:45.961Z,18.94
2017-05-02T00:53:58.761Z,18.93
2017-05-02T00:55:11.075Z,18.94
2017-05-02T00:56:23.873Z,19.01
2017-05-02T00:57:50.740Z,18.87
2017-05-02T00:59:03.575Z,18.9
2017-05-02T01:00:16.371Z,18.89
2017-05-02T01:01:29.167Z,18.86
2017-05-02T01:02:42.212Z,18.86
2017-05-02T01:03:54.524Z,18.84
2017-05-02T01:05:07.322Z,18.82
2017-05-02T01:06:20.122Z,18.76
2017-05-02T01:07:32.431Z,18.76
2017-05-02T01:08:44.747Z,18.76
2017-05-02T01:09:57.547Z,18.71
2017-05-02T01:11:10.359Z,18.79
2017-05-02T01:12:23.154Z,18.79
2017-05-02T01:13:36.201Z,18.91
2017-05-02T01:14:48.511Z,18.78
2017-05-02T01:16:01.305Z,18.84
2017-05-02T01:17:14.163Z,18.76
2017-05-02T01:18:26.961Z,18.75
2017-05-02T01:19:39.525Z,18.74
2017-05-02T01:20:52.318Z,18.78
2017-05-02T01:22:05.125Z,18.83
2017-05-02T01:23:17.445Z,18.66
2017-05-02T01:24:30.257Z,18.74
2017-05-02T01:25:42.592Z,18.65
2017-05-02T01:26:54.909Z,18.64
2017-05-02T01:28:07.709Z,18.64
2017-05-02T01:29:20.517Z,18.69
2017-05-02T01:30:33.318Z,18.69
2017-05-02T01:31:46.116Z,18.71
2017-05-02T01:32:58.431Z,18.68
2017-05-02T01:34:11.232Z,18.68
2017-05-02T01:35:24.288Z,18.66
2017-05-02T01:36:37.089Z,18.64
2017-05-02T01:37:49.896Z,18.69
2017-05-02T01:39:02.707Z,18.56
2017-05-02T01:40:15.021Z,18.56
2017-05-02T01:41:28.124Z,18.53
2017-05-02T01:42:40.936Z,18.64
2017-05-02T01:43:53.269Z,18.53
2017-05-02T01:45:05.587Z,18.56
2017-05-02T01:46:17.898Z,18.56
2017-05-02T01:47:30.688Z,18.6
2017-05-02T01:48:43.489Z,18.64
2017-05-02T01:49:56.284Z,18.62
2017-05-02T01:51:08.597Z,18.56
2017-05-02T01:52:21.694Z,18.64
2017-05-02T01:53:34.494Z,18.57
2017-05-02T01:54:47.289Z,18.65
2017-05-02T01:56:00.115Z,18.64
2017-05-02T01:57:12.926Z,18.68
2017-05-02T01:58:25.732Z,18.62
2017-05-02T01:59:38.542Z,18.62
2017-05-02T02:00:51.349Z,18.66
2017-05-02T02:02:04.165Z,18.57
2017-05-02T02:03:16.735Z,18.62
2017-05-02T02:04:29.061Z,18.54
2017-05-02T02:05:41.872Z,18.62
2017-05-02T02:06:54.669Z,18.64
2017-05-02T02:08:07.480Z,18.65
2017-05-02T02:09:20.281Z,18.64
2017-05-02T02:10:33.084Z,18.6
2017-05-02T02:11:45.879Z,18.68
2017-05-02T02:12:58.672Z,18.56
2017-05-02T02:14:11.721Z,18.59
2017-05-02T02:15:24.522Z,18.53
2017-05-02T02:16:37.311Z,18.56
2017-05-02T02:17:50.113Z,18.5
2017-05-02T02:19:02.703Z,18.47
2017-05-02T02:20:15.054Z,18.54
2017-05-02T02:21:27.856Z,18.54
2017-05-02T02:22:40.666Z,18.53
2017-05-02T02:23:53.455Z,18.49
2017-05-02T02:25:06.498Z,18.49
2017-05-02T02:26:18.811Z,18.54
2017-05-02T02:27:31.610Z,18.5
2017-05-02T02:28:44.397Z,18.54
2017-05-02T02:29:57.445Z,18.57
2017-05-02T02:31:10.349Z,18.53
2017-05-02T02:32:22.167Z,18.59
2017-05-02T02:33:34.960Z,18.54
2017-05-02T02:34:47.273Z,18.5
2017-05-02T02:36:00.067Z,18.5
2017-05-02T02:37:12.374Z,18.49
2017-05-02T02:38:25.171Z,18.41
2017-05-02T02:39:37.976Z,18.36
2017-05-02T02:40:51.064Z,18.39
2017-05-02T02:42:03.853Z,18.38
2017-05-02T02:43:16.644Z,18.36
2017-05-02T02:44:29.451Z,18.36
2017-05-02T02:45:42.255Z,18.36
2017-05-02T02:46:55.299Z,18.36
2017-05-02T02:48:08.092Z,18.46
2017-05-02T02:49:20.435Z,18.34
2017-05-02T02:50:33.217Z,18.26
2017-05-02T02:51:45.820Z,18.34
2017-05-02T02:52:58.606Z,18.34
2017-05-02T02:54:11.392Z,18.34
2017-05-02T02:55:24.194Z,18.35
2017-05-02T02:56:36.987Z,18.39
2017-05-02T02:57:49.591Z,18.23
2017-05-02T02:59:02.390Z,18.35
2017-05-02T03:00:15.186Z,18.31
2017-05-02T03:01:27.969Z,18.21
2017-05-02T03:02:40.757Z,18.35
2017-05-02T03:03:53.072Z,18.29
2017-05-02T03:05:05.871Z,18.34
2017-05-02T03:06:18.181Z,18.2
2017-05-02T03:07:30.974Z,18.25
2017-05-02T03:08:44.024Z,18.29
2017-05-02T03:09:56.819Z,18.35
2017-05-02T03:11:09.136Z,18.34
2017-05-02T03:12:21.930Z,18.41
2017-05-02T03:13:35.014Z,18.31
2017-05-02T03:14:47.801Z,18.32
2017-05-02T03:16:00.588Z,18.36
2017-05-02T03:17:13.372Z,18.35
2017-05-02T03:18:26.169Z,18.36
2017-05-02T03:19:38.727Z,18.41
2017-05-02T03:20:51.507Z,18.34
2017-05-02T03:22:04.294Z,18.39
2017-05-02T03:23:16.117Z,18.38
2017-05-02T03:24:28.676Z,18.35
2017-05-02T03:25:41.458Z,18.28
2017-05-02T03:26:53.794Z,18.34
2017-05-02T03:28:06.576Z,18.31
2017-05-02T03:29:19.365Z,18.36
2017-05-02T03:30:32.399Z,18.42
2017-05-02T03:31:45.227Z,18.34
2017-05-02T03:32:57.529Z,18.32
2017-05-02T03:34:09.839Z,18.38
2017-05-02T03:35:22.628Z,18.42
2017-05-02T03:36:35.412Z,18.41
2017-05-02T03:37:48.201Z,18.36
2017-05-02T03:39:00.986Z,18.34
2017-05-02T03:40:13.771Z,18.42
2017-05-02T03:41:26.551Z,18.39
2017-05-02T03:42:39.334Z,18.44
2017-05-02T03:43:51.642Z,18.39
2017-05-02T03:45:04.423Z,18.46
2017-05-02T03:46:17.212Z,18.39
2017-05-02T03:47:30.001Z,18.41
2017-05-02T03:48:42.802Z,18.38
2017-05-02T03:49:55.113Z,18.41
2017-05-02T03:51:07.895Z,18.39
2017-05-02T03:52:20.675Z,18.41
2017-05-02T03:53:32.987Z,18.47
2017-05-02T03:54:45.304Z,18.28
2017-05-02T03:55:58.088Z,18.38
2017-05-02T03:57:10.639Z,18.39
2017-05-02T03:58:23.422Z,18.39
2017-05-02T03:59:36.206Z,18.39
2017-05-02T04:00:48.999Z,18.32
2017-05-02T04:02:01.824Z,18.39
2017-05-02T04:03:14.378Z,18.41
2017-05-02T04:04:27.164Z,18.39
2017-05-02T04:05:39.948Z,18.39
2017-05-02T04:06:52.731Z,18.41
2017-05-02T04:08:05.508Z,18.47
2017-05-02T04:09:17.326Z,18.44
2017-05-02T04:10:30.116Z,18.36
2017-05-02T04:11:42.900Z,18.32
2017-05-02T04:12:55.690Z,18.39
2017-05-02T04:14:08.474Z,18.36
2017-05-02T04:15:21.272Z,18.41
2017-05-02T04:16:34.070Z,18.38
2017-05-02T04:17:46.851Z,18.32
2017-05-02T04:18:59.633Z,18.46
2017-05-02T04:20:11.930Z,18.39
2017-05-02T04:21:24.242Z,18.39
2017-05-02T04:22:37.057Z,18.41
2017-05-02T04:23:49.840Z,18.39
2017-05-02T04:25:02.624Z,18.46
2017-05-02T04:26:14.930Z,18.34
2017-05-02T04:27:27.712Z,18.34
2017-05-02T04:28:40.493Z,18.35
2017-05-02T04:29:53.278Z,18.42
2017-05-02T04:31:06.075Z,18.41
2017-05-02T04:32:18.377Z,18.35
2017-05-02T04:33:31.161Z,18.34
2017-05-02T04:34:43.943Z,18.42
2017-05-02T04:35:56.547Z,18.39
2017-05-02T04:37:09.332Z,18.32
2017-05-02T04:38:21.149Z,18.39
2017-05-02T04:39:33.933Z,18.23
2017-05-02T04:40:46.720Z,18.35
2017-05-02T04:41:59.502Z,18.29
2017-05-02T04:43:12.285Z,18.35
2017-05-02T04:44:25.078Z,18.35
2017-05-02T04:45:37.865Z,18.36
2017-05-02T04:46:50.641Z,18.35
2017-05-02T04:48:02.957Z,18.38
2017-05-02T04:49:15.743Z,18.36
2017-05-02T04:50:28.525Z,18.35
2017-05-02T04:51:41.081Z,18.36
2017-05-02T04:52:53.862Z,18.36
2017-05-02T04:54:06.649Z,18.36
2017-05-02T04:55:18.470Z,18.35
2017-05-02T04:56:31.252Z,18.34
2017-05-02T04:57:44.035Z,18.31
2017-05-02T04:58:56.340Z,18.34
2017-05-02T05:00:08.648Z,18.28
2017-05-02T05:01:21.434Z,18.21
2017-05-02T05:02:34.465Z,18.2
2017-05-02T05:03:47.259Z,18.14
2017-05-02T05:05:00.047Z,18.09
2017-05-02T05:06:12.355Z,18.1
2017-05-02T05:07:25.144Z,18.14
2017-05-02T05:08:37.927Z,18.07
2017-05-02T05:09:50.711Z,18.07
2017-05-02T05:11:03.491Z,18.07
2017-05-02T05:12:16.278Z,18.01
2017-05-02T05:13:29.367Z,18.04
2017-05-02T05:14:42.153Z,17.98
2017-05-02T05:15:54.930Z,17.98
2017-05-02T05:17:07.233Z,18.01
2017-05-02T05:18:20.019Z,17.99
2017-05-02T05:19:33.057Z,18.02
2017-05-02T05:20:45.842Z,17.98
2017-05-02T05:21:58.627Z,18.04
2017-05-02T05:23:11.408Z,17.95
2017-05-02T05:24:23.960Z,17.98
2017-05-02T05:25:36.746Z,18.01
2017-05-02T05:26:49.527Z,17.91
2017-05-02T05:28:01.823Z,17.87
2017-05-02T05:29:14.615Z,17.84
2017-05-02T05:30:27.696Z,17.81
2017-05-02T05:31:40.481Z,17.77
2017-05-02T05:32:53.261Z,17.73
2017-05-02T05:34:05.562Z,17.74
2017-05-02T05:35:18.343Z,17.62
2017-05-02T05:36:31.131Z,17.58
2017-05-02T05:37:43.921Z,17.57
2017-05-02T05:38:56.708Z,17.57
2017-05-02T05:40:09.012Z,17.55
2017-05-02T05:41:35.863Z,17.57
2017-05-02T05:42:48.641Z,17.57
2017-05-02T05:44:01.425Z,17.55
2017-05-02T05:45:13.728Z,17.62
2017-05-02T05:46:26.030Z,17.62
2017-05-02T05:47:38.822Z,17.74
2017-05-02T05:48:51.606Z,17.73
2017-05-02T05:50:04.385Z,17.74
2017-05-02T05:51:16.226Z,17.65
2017-05-02T05:52:28.530Z,17.87
2017-05-02T05:53:41.318Z,17.81
2017-05-02T05:54:54.098Z,17.76
2017-05-02T05:56:06.422Z,17.87
2017-05-02T05:57:19.212Z,17.8
2017-05-02T05:58:31.995Z,17.73
2017-05-02T05:59:44.311Z,17.62
2017-05-02T06:00:56.611Z,17.6
2017-05-02T06:02:09.689Z,17.55
2017-05-02T06:03:22.468Z,17.54
2017-05-02T06:04:35.249Z,17.54
2017-05-02T06:05:48.031Z,17.6
2017-05-02T06:07:00.807Z,17.49
2017-05-02T06:08:13.109Z,17.54
2017-05-02T06:09:25.893Z,17.63
2017-05-02T06:10:38.678Z,17.68
2017-05-02T06:11:51.457Z,17.74
2017-05-02T06:13:04.242Z,17.73
2017-05-02T06:14:17.037Z,17.71
2017-05-02T06:15:28.861Z,17.7
2017-05-02T06:16:41.643Z,17.73
2017-05-02T06:17:54.426Z,17.68
2017-05-02T06:19:07.218Z,17.58
2017-05-02T06:20:19.520Z,17.65
2017-05-02T06:21:31.823Z,17.57
2017-05-02T06:22:44.602Z,17.66
2017-05-02T06:23:57.684Z,17.74
2017-05-02T06:25:10.464Z,17.74
2017-05-02T06:26:23.246Z,17.73
2017-05-02T06:27:36.029Z,17.73
2017-05-02T06:28:48.810Z,17.77
2017-05-02T06:30:01.600Z,17.84
2017-05-02T06:31:14.384Z,17.87
2017-05-02T06:32:27.174Z,17.68
2017-05-02T06:33:39.473Z,17.74
2017-05-02T06:34:52.260Z,17.73
2017-05-02T06:36:05.041Z,17.6
2017-05-02T06:37:17.339Z,17.58
2017-05-02T06:38:28.675Z,17.7
2017-05-02T06:39:41.457Z,17.55
2017-05-02T06:40:54.004Z,17.6
2017-05-02T06:42:06.787Z,17.63
2017-05-02T06:43:18.607Z,17.68
2017-05-02T06:44:31.390Z,17.71
2017-05-02T06:45:44.213Z,17.71
2017-05-02T06:46:56.028Z,17.76
2017-05-02T06:48:08.328Z,17.84
2017-05-02T06:49:20.645Z,17.76
2017-05-02T06:50:33.429Z,17.71
2017-05-02T06:51:46.462Z,17.71
2017-05-02T06:52:58.770Z,17.73
2017-05-02T06:54:10.586Z,17.77
2017-05-02T06:55:23.365Z,17.76
2017-05-02T06:56:35.663Z,17.74
2017-05-02T06:57:48.444Z,17.74
2017-05-02T06:59:01.236Z,17.81
2017-05-02T07:00:14.016Z,17.68
2017-05-02T07:01:26.326Z,17.74
2017-05-02T07:02:38.628Z,17.87
2017-05-02T07:03:50.931Z,17.81
2017-05-02T07:05:03.714Z,17.92
2017-05-02T07:06:16.496Z,17.87
2017-05-02T07:07:29.578Z,17.87
2017-05-02T07:08:41.875Z,17.89
2017-05-02T07:09:54.665Z,17.92
2017-05-02T07:11:06.970Z,17.98
2017-05-02T07:12:19.761Z,17.96
2017-05-02T07:13:32.070Z,17.98
2017-05-02T07:14:44.883Z,17.99
2017-05-02T07:15:57.662Z,18.01
2017-05-02T07:17:09.972Z,18.02
2017-05-02T07:18:23.004Z,17.98
2017-05-02T07:19:35.801Z,17.98
2017-05-02T07:20:48.649Z,17.99
2017-05-02T07:22:01.442Z,18.05
2017-05-02T07:23:14.236Z,18.01
2017-05-02T07:24:27.034Z,17.98
2017-05-02T07:25:39.820Z,18.02
2017-05-02T07:26:52.608Z,17.94
2017-05-02T07:28:05.399Z,17.91
2017-05-02T07:29:18.447Z,18.04
2017-05-02T07:30:31.238Z,17.99
2017-05-02T07:31:44.031Z,17.92
2017-05-02T07:32:56.825Z,17.92
2017-05-02T07:34:09.619Z,18.09
2017-05-02T07:35:22.414Z,18.01
2017-05-02T07:36:34.730Z,18.02
2017-05-02T07:37:47.523Z,18.07
2017-05-02T07:39:00.320Z,18.07
2017-05-02T07:40:12.144Z,18.09
2017-05-02T07:41:24.457Z,17.96
2017-05-02T07:42:37.269Z,17.91
2017-05-02T07:43:49.588Z,18.01
2017-05-02T07:45:02.380Z,17.92
2017-05-02T07:46:15.458Z,18.01
2017-05-02T07:47:28.252Z,17.98
2017-05-02T07:48:41.060Z,18.02
2017-05-02T07:49:53.855Z,17.96
2017-05-02T07:51:06.947Z,18.02
2017-05-02T07:52:19.739Z,18.05
2017-05-02T07:53:32.534Z,18.09
2017-05-02T07:54:45.320Z,18.09
2017-05-02T07:55:58.105Z,18.04
2017-05-02T07:57:11.190Z,18.13
2017-05-02T07:58:23.021Z,18.1
2017-05-02T07:59:35.324Z,18.09
2017-05-02T08:00:47.629Z,18.14
2017-05-02T08:02:00.670Z,18.02
2017-05-02T08:03:13.462Z,18.1
2017-05-02T08:04:26.271Z,18.09
2017-05-02T08:05:39.061Z,18.09
2017-05-02T08:06:51.848Z,18.09
2017-05-02T08:08:03.681Z,18.13
2017-05-02T08:09:15.986Z,18.11
2017-05-02T08:10:28.293Z,18.1
2017-05-02T08:11:41.075Z,18.1
2017-05-02T08:12:53.863Z,18.04
2017-05-02T08:14:06.663Z,18.01
2017-05-02T08:15:18.966Z,18.09
2017-05-02T08:16:31.271Z,18.13
2017-05-02T08:17:43.593Z,18.02
2017-05-02T08:18:56.385Z,18.07
2017-05-02T08:20:08.695Z,18.01
2017-05-02T08:21:21.493Z,18.01
2017-05-02T08:22:34.285Z,18.07
2017-05-02T08:23:47.083Z,18.02
2017-05-02T08:24:59.877Z,17.99
2017-05-02T08:26:12.665Z,18.02
2017-05-02T08:27:25.450Z,18.02
2017-05-02T08:28:38.252Z,18.01
2017-05-02T08:29:51.297Z,18.09
2017-05-02T08:31:03.611Z,18.09
2017-05-02T08:32:15.918Z,18.05
2017-05-02T08:33:28.236Z,18.09
2017-05-02T08:34:41.282Z,18.11
2017-05-02T08:35:53.593Z,18.05
2017-05-02T08:37:06.380Z,18.05
2017-05-02T08:38:18.692Z,18.13
2017-05-02T08:39:31.492Z,18.01
2017-05-02T08:40:44.292Z,18.05
2017-05-02T08:41:57.091Z,18.02
2017-05-02T08:43:09.877Z,18.02
2017-05-02T08:44:22.674Z,18.09
2017-05-02T08:45:35.241Z,18.04
2017-05-02T08:46:48.028Z,18.09
2017-05-02T08:48:00.824Z,18.11
2017-05-02T08:49:13.625Z,18.16
2017-05-02T08:50:25.934Z,18.05
2017-05-02T08:51:38.974Z,18.14
2017-05-02T08:52:51.763Z,18.1
2017-05-02T08:54:04.554Z,18.19
2017-05-02T08:55:17.357Z,18.14
2017-05-02T08:56:30.141Z,18.2
2017-05-02T08:57:42.927Z,18.2
2017-05-02T08:58:55.718Z,18.2
2017-05-02T09:00:08.510Z,18.21
2017-05-02T09:01:21.317Z,18.16
2017-05-02T09:02:34.106Z,18.2
2017-05-02T09:03:46.909Z,18.23
2017-05-02T09:04:59.706Z,18.19
2017-05-02T09:06:12.014Z,18.21
2017-05-02T09:07:25.061Z,18.23
2017-05-02T09:08:37.842Z,18.26
2017-05-02T09:09:50.623Z,18.21
2017-05-02T09:11:02.922Z,18.34
2017-05-02T09:12:14.740Z,18.29
2017-05-02T09:13:27.045Z,18.35
2017-05-02T09:14:39.832Z,18.21
2017-05-02T09:15:51.653Z,18.23
2017-05-02T09:17:04.436Z,18.14
2017-05-02T09:18:17.218Z,18.19
2017-05-02T09:19:30.009Z,18.2
2017-05-02T09:20:42.819Z,18.21
2017-05-02T09:21:55.602Z,18.23
2017-05-02T09:23:08.391Z,18.19
2017-05-02T09:24:21.192Z,18.25
2017-05-02T09:25:33.978Z,18.17
2017-05-02T09:26:46.760Z,18.13
2017-05-02T09:27:59.543Z,18.05
2017-05-02T09:29:12.323Z,18.07
2017-05-02T09:30:25.143Z,18.13
2017-05-02T09:31:37.439Z,18.04
2017-05-02T09:32:50.217Z,17.95
2017-05-02T09:34:03.053Z,17.99
2017-05-02T09:35:15.354Z,18.02
2017-05-02T09:36:27.684Z,18.11
2017-05-02T09:37:39.983Z,18.21
2017-05-02T09:38:52.769Z,18.25
2017-05-02T09:40:05.323Z,18.25
2017-05-02T09:41:17.621Z,18.2
2017-05-02T09:42:29.924Z,18.35
2017-05-02T09:43:42.228Z,18.29
2017-05-02T09:44:55.009Z,18.35
2017-05-02T09:46:08.042Z,18.41
2017-05-02T09:47:19.860Z,18.32
2017-05-02T09:48:32.647Z,18.35
2017-05-02T09:49:44.952Z,18.34
2017-05-02T09:50:57.260Z,18.25
2017-05-02T09:52:10.040Z,18.2
2017-05-02T09:53:22.352Z,18.2
2017-05-02T09:54:35.148Z,18.2
2017-05-02T09:55:47.461Z,18.32
2017-05-02T09:57:00.072Z,18.31
2017-05-02T09:58:12.870Z,18.25
2017-05-02T09:59:25.675Z,18.35
2017-05-02T10:00:38.461Z,18.32
2017-05-02T10:01:50.772Z,18.38
2017-05-02T10:03:03.568Z,18.26
2017-05-02T10:04:15.872Z,18.39
2017-05-02T10:05:28.179Z,18.31
2017-05-02T10:06:40.973Z,18.32
2017-05-02T10:07:54.022Z,18.46
2017-05-02T10:09:06.825Z,18.41
2017-05-02T10:10:19.615Z,18.42
2017-05-02T10:11:32.406Z,18.41
2017-05-02T10:12:44.970Z,18.46
2017-05-02T10:13:56.793Z,18.38
2017-05-02T10:15:08.628Z,18.44
2017-05-02T10:16:21.429Z,18.38
2017-05-02T10:17:33.740Z,18.39
2017-05-02T10:18:46.787Z,18.36
2017-05-02T10:19:59.099Z,18.38
2017-05-02T10:21:10.940Z,18.32
2017-05-02T10:22:23.252Z,18.39
2017-05-02T10:23:35.336Z,18.41
2017-05-02T10:24:48.131Z,18.44
2017-05-02T10:26:00.918Z,18.36
2017-05-02T10:27:13.715Z,18.31
2017-05-02T10:28:26.026Z,18.39
2017-05-02T10:29:37.857Z,18.36
2017-05-02T10:30:50.643Z,18.42
2017-05-02T10:32:02.465Z,18.39
2017-05-02T10:33:14.777Z,18.38
2017-05-02T10:34:27.089Z,18.34
2017-05-02T10:35:38.912Z,18.32
2017-05-02T10:36:51.709Z,18.34
2017-05-02T10:38:04.502Z,18.35
2017-05-02T10:39:17.300Z,18.38
2017-05-02T10:40:30.102Z,18.2
2017-05-02T10:41:42.894Z,18.28
2017-05-02T10:42:55.205Z,18.25
2017-05-02T10:44:07.994Z,18.32
2017-05-02T10:45:21.085Z,18.29
2017-05-02T10:46:33.878Z,18.31
2017-05-02T10:47:46.671Z,18.25
2017-05-02T10:48:58.986Z,18.23
2017-05-02T10:50:11.789Z,18.39
2017-05-02T10:51:24.599Z,18.35
2017-05-02T10:52:37.394Z,18.32
2017-05-02T10:53:50.202Z,18.39
2017-05-02T10:55:02.545Z,18.47
2017-05-02T10:56:14.852Z,18.39
2017-05-02T10:57:26.684Z,18.42
2017-05-02T10:58:39.009Z,18.44
2017-05-02T10:59:51.797Z,18.44
2017-05-02T11:01:04.586Z,18.42
2017-05-02T11:02:17.370Z,18.39
2017-05-02T11:03:29.680Z,18.42
2017-05-02T11:04:42.477Z,18.46
2017-05-02T11:05:55.281Z,18.42
2017-05-02T11:07:07.901Z,18.26
2017-05-02T11:08:20.694Z,18.29
2017-05-02T11:09:33.495Z,18.23
2017-05-02T11:10:46.290Z,18.41
2017-05-02T11:11:59.084Z,18.32
2017-05-02T11:13:11.892Z,18.36
2017-05-02T11:14:24.209Z,18.42
2017-05-02T11:15:37.000Z,18.35
2017-05-02T11:16:49.787Z,18.46
2017-05-02T11:18:02.100Z,18.46
2017-05-02T11:19:14.892Z,18.49
2017-05-02T11:20:27.689Z,18.53
2017-05-02T11:21:40.488Z,18.56
2017-05-02T11:22:52.796Z,18.64
2017-05-02T11:24:05.111Z,18.71
2017-05-02T11:25:17.450Z,18.75
2017-05-02T11:26:29.761Z,18.83
2017-05-02T11:27:42.711Z,18.9
2017-05-02T11:28:55.040Z,18.91
2017-05-02T11:30:07.837Z,18.76
2017-05-02T11:31:20.139Z,18.86
2017-05-02T11:32:31.971Z,18.94
2017-05-02T11:33:44.769Z,18.97
2017-05-02T11:34:57.565Z,19.01
2017-05-02T11:36:09.401Z,18.96
2017-05-02T11:37:22.190Z,18.91
2017-05-02T11:38:34.985Z,18.99
2017-05-02T11:39:47.784Z,19.01
2017-05-02T11:40:59.616Z,18.97
2017-05-02T11:42:11.930Z,18.94
2017-05-02T11:43:24.720Z,18.96
2017-05-02T11:44:37.516Z,18.93
2017-05-02T11:45:50.317Z,18.94
2017-05-02T11:47:03.117Z,18.99
2017-05-02T11:48:15.926Z,19.07
2017-05-02T11:49:28.537Z,19.09
2017-05-02T11:50:41.334Z,19.07
2017-05-02T11:51:53.164Z,19.17
2017-05-02T11:53:05.964Z,19.24
2017-05-02T11:54:18.288Z,19.15
2017-05-02T11:55:31.099Z,19.15
2017-05-02T11:56:43.924Z,19.25
2017-05-02T11:57:56.720Z,19.3
2017-05-02T11:59:09.524Z,19.35
2017-05-02T12:00:22.142Z,19.35
2017-05-02T12:01:34.941Z,19.42
2017-05-02T12:02:47.254Z,19.34
2017-05-02T12:03:59.571Z,19.12
2017-05-02T12:05:12.368Z,19.12
2017-05-02T12:06:25.179Z,19.21
2017-05-02T12:07:38.153Z,19.23
2017-05-02T12:08:50.957Z,19.23
2017-05-02T12:10:03.757Z,19.3
2017-05-02T12:11:16.555Z,19.3
2017-05-02T12:12:28.868Z,19.5
2017-05-02T12:13:41.919Z,19.52
2017-05-02T12:14:54.730Z,19.58
2017-05-02T12:16:07.532Z,19.58
2017-05-02T12:17:19.845Z,19.47
2017-05-02T12:18:32.167Z,19.42
2017-05-02T12:19:44.960Z,19.32
2017-05-02T12:20:57.767Z,19.57
2017-05-02T12:22:10.565Z,19.61
2017-05-02T12:23:22.881Z,19.67
2017-05-02T12:24:34.714Z,19.79
2017-05-02T12:25:47.511Z,19.85
2017-05-02T12:26:59.342Z,19.85
2017-05-02T12:28:12.138Z,19.87
2017-05-02T12:29:24.928Z,19.94
2017-05-02T12:30:37.727Z,19.94
2017-05-02T12:31:50.524Z,20.05
2017-05-02T12:33:03.319Z,20.04
2017-05-02T12:34:15.147Z,19.95
2017-05-02T12:35:27.935Z,20.02
2017-05-02T12:36:40.731Z,20.15
2017-05-02T12:37:53.530Z,20.04
2017-05-02T12:39:06.322Z,20.2
2017-05-02T12:40:18.635Z,20.17
2017-05-02T12:41:30.952Z,20.38
2017-05-02T12:42:43.762Z,20.38
2017-05-02T12:43:56.565Z,20.42
2017-05-02T12:45:09.361Z,20.51
2017-05-02T12:46:22.152Z,20.5
2017-05-02T12:47:34.470Z,20.56
2017-05-02T12:48:47.262Z,20.66
2017-05-02T12:50:00.365Z,20.71
2017-05-02T12:51:12.668Z,20.69
2017-05-02T12:52:24.496Z,20.75
2017-05-02T12:53:37.290Z,20.75
2017-05-02T12:56:49.558Z,20.73
2017-05-02T12:58:01.871Z,20.83
2017-05-02T12:59:14.668Z,20.85
2017-05-02T13:00:27.469Z,20.85
2017-05-02T13:01:40.260Z,20.72
2017-05-02T13:02:52.818Z,20.76
2017-05-02T13:04:05.613Z,20.66
2017-05-02T13:05:17.449Z,20.61
2017-05-02T13:06:30.241Z,20.66
2017-05-02T13:07:42.591Z,20.58
2017-05-02T13:08:55.645Z,20.54
2017-05-02T13:10:08.451Z,20.54
2017-05-02T13:11:20.762Z,20.66
2017-05-02T13:12:33.086Z,20.81
2017-05-02T13:13:45.405Z,20.91
2017-05-02T13:14:58.213Z,20.97
2017-05-02T13:16:11.010Z,21.12
2017-05-02T13:17:23.803Z,21.12
2017-05-02T13:18:36.114Z,21.3
2017-05-02T13:20:17.060Z,21.33
2017-05-02T13:21:29.377Z,21.46
2017-05-02T13:22:42.169Z,21.56
2017-05-02T13:23:54.968Z,21.61
2017-05-02T13:25:07.760Z,21.7
2017-05-02T13:26:20.075Z,21.74
2017-05-02T13:27:32.872Z,21.82
2017-05-02T13:28:45.194Z,21.96
2017-05-02T13:29:57.996Z,22.04
2017-05-02T13:31:10.796Z,22.12
2017-05-02T13:32:23.601Z,22.3
2017-05-02T13:33:35.915Z,22.38
2017-05-02T13:34:48.710Z,22.38
2017-05-02T13:36:01.510Z,22.48
2017-05-02T13:37:13.830Z,22.52
2017-05-02T13:38:26.136Z,22.57
2017-05-02T13:39:38.926Z,22.52
2017-05-02T13:40:51.716Z,22.6
2017-05-02T13:42:04.516Z,22.72
2017-05-02T13:43:16.831Z,22.88
2017-05-02T13:44:29.448Z,22.86
2017-05-02T13:45:41.774Z,22.96
2017-05-02T13:46:54.583Z,23.07
2017-05-02T13:48:07.384Z,23.21
2017-05-02T13:49:19.697Z,23.21
2017-05-02T13:50:31.841Z,23.12
2017-05-02T13:51:44.155Z,23.09
2017-05-02T13:52:56.957Z,22.89
2017-05-02T13:54:09.749Z,23
2017-05-02T13:55:22.840Z,23.12
2017-05-02T13:56:35.153Z,23.19
2017-05-02T13:57:47.952Z,23.19
2017-05-02T13:59:00.749Z,23.23
2017-05-02T14:00:13.540Z,23.38
2017-05-02T14:01:26.341Z,23.45
2017-05-02T14:02:39.142Z,23.49
2017-05-02T14:03:52.154Z,23.44
2017-05-02T14:05:04.945Z,23.62
2017-05-02T14:06:17.745Z,23.64
2017-05-02T14:07:44.622Z,23.69
2017-05-02T14:08:57.451Z,23.63
2017-05-02T14:10:24.317Z,23.69
2017-05-02T14:11:36.628Z,23.6
2017-05-02T14:12:48.460Z,23.44
2017-05-02T14:14:01.264Z,23.14
2017-05-02T14:15:14.066Z,23.19
2017-05-02T14:16:26.375Z,23.25
2017-05-02T14:17:39.175Z,23.06
2017-05-02T14:18:51.495Z,23.06
2017-05-02T14:20:04.299Z,23.15
2017-05-02T14:21:17.098Z,23.22
2017-05-02T14:22:29.892Z,23.31
2017-05-02T14:23:42.689Z,23.37
2017-05-02T14:24:54.517Z,23.38
2017-05-02T14:26:07.308Z,23.53
2017-05-02T14:27:20.674Z,23.62
2017-05-02T14:28:33.470Z,23.72
2017-05-02T14:29:46.272Z,23.78
2017-05-02T14:30:59.070Z,24.04
2017-05-02T14:32:11.864Z,24.15
2017-05-02T14:33:24.665Z,24.15
2017-05-02T14:34:37.466Z,24.31
2017-05-02T14:35:50.529Z,24.14
2017-05-02T14:37:03.329Z,24.11
2017-05-02T14:38:15.160Z,24.21
2017-05-02T14:39:27.487Z,24.02
2017-05-02T14:40:40.579Z,23.78
2017-05-02T14:41:53.370Z,23.87
2017-05-02T14:43:06.160Z,24.02
2017-05-02T14:44:17.994Z,24
2017-05-02T14:45:30.794Z,23.96
2017-05-02T14:46:43.105Z,23.75
2017-05-02T14:47:55.903Z,23.87
2017-05-02T14:49:08.478Z,23.84
2017-05-02T14:50:21.285Z,23.92
2017-05-02T14:51:34.087Z,23.94
2017-05-02T14:52:46.886Z,23.99
2017-05-02T14:53:59.692Z,23.72
2017-05-02T14:55:12.009Z,23.56
2017-05-02T14:56:24.320Z,23.47
2017-05-02T14:57:37.126Z,23.47
2017-05-02T14:58:49.918Z,23.5
2017-05-02T15:00:02.718Z,23.47
2017-05-02T15:01:15.039Z,23.49
2017-05-02T15:02:27.826Z,23.32
2017-05-02T15:03:40.629Z,23.41
2017-05-02T15:04:53.437Z,23.31
2017-05-02T15:06:06.278Z,23.31
2017-05-02T15:07:19.073Z,23.29
2017-05-02T15:08:31.869Z,23.39
2017-05-02T15:09:44.179Z,22.99
2017-05-02T15:11:11.041Z,22.97
2017-05-02T15:12:37.903Z,22.76
2017-05-02T15:13:50.693Z,22.7
2017-05-02T15:15:03.729Z,22.82
2017-05-02T15:16:16.513Z,22.69
2017-05-02T15:17:29.306Z,22.64
2017-05-02T15:18:41.615Z,22.6
2017-05-02T15:19:54.406Z,22.66
2017-05-02T15:21:07.211Z,22.59
2017-05-02T15:22:19.997Z,22.66
2017-05-02T15:23:31.818Z,22.66
2017-05-02T15:24:44.601Z,22.67
2017-05-02T15:25:57.065Z,22.76
2017-05-02T15:27:09.380Z,22.79
2017-05-02T15:28:22.171Z,22.78
2017-05-02T15:29:34.962Z,22.86
2017-05-02T15:30:47.745Z,22.91
2017-05-02T15:32:00.782Z,23.03
2017-05-02T15:33:13.570Z,22.97
2017-05-02T15:34:25.392Z,22.99
2017-05-02T15:35:38.180Z,22.91
2017-05-02T15:36:50.487Z,22.86
2017-05-02T15:38:02.801Z,22.82
2017-05-02T15:39:15.115Z,22.81
2017-05-02T15:40:27.908Z,22.97
2017-05-02T15:41:40.700Z,22.97